sensor_id;sensor_type;location;lat;lon;timestamp;pressure;altitude;pressure_sealevel;temperature;humidity
57234;BME280;43090;52.604;13.318;2024-02-15T00:01:22;101125.50;;;8.36;100.00
57234;BME280;43090;52.604;13.318;2024-02-15T00:03:51;101119.84;;;8.42;100.00
57234;BME280;43090;52.604;13.318;2024-02-15T00:06:17;101139.13;;;8.31;100.00
57234;BME280;43090;52.604;13.318;2024-02-15T00:08:44;101131.84;;;8.17;100.00
57234;BME280;43090;52.604;13.318;2024-02-15T00:11:11;101122.50;;;7.92;100.00
57234;BME280;43090;52.604;13.318;2024-02-15T00:13:39;101122.59;;;8.24;100.00
57234;BME280;43090;52.604;13.318;2024-02-15T00:16:05;101143.09;;;8.56;100.00
57234;BME280;43090;52.604;13.318;2024-02-15T00:18:34;101099.34;;;8.42;100.00
57234;BME280;43090;52.604;13.318;2024-02-15T00:21:03;101115.00;;;8.32;100.00
57234;BME280;43090;52.604;13.318;2024-02-15T00:23:30;101125.16;;;8.42;100.00
57234;BME280;43090;52.604;13.318;2024-02-15T00:25:58;101124.56;;;8.37;100.00
57234;BME280;43090;52.604;13.318;2024-02-15T00:28:25;101096.06;;;8.05;100.00
57234;BME280;43090;52.604;13.318;2024-02-15T00:30:53;101118.34;;;8.20;100.00
57234;BME280;43090;52.604;13.318;2024-02-15T00:33:19;101112.78;;;8.41;100.00
57234;BME280;43090;52.604;13.318;2024-02-15T00:35:47;101125.00;;;8.45;100.00
57234;BME280;43090;52.604;13.318;2024-02-15T00:38:26;101118.53;;;8.33;100.00
57234;BME280;43090;52.604;13.318;2024-02-15T00:40:53;101125.63;;;8.50;100.00
57234;BME280;43090;52.604;13.318;2024-02-15T00:43:20;101115.78;;;8.34;100.00
57234;BME280;43090;52.604;13.318;2024-02-15T00:45:47;101141.63;;;8.50;100.00
57234;BME280;43090;52.604;13.318;2024-02-15T00:48:13;101135.66;;;8.45;100.00
57234;BME280;43090;52.604;13.318;2024-02-15T00:50:40;101127.84;;;8.42;100.00
57234;BME280;43090;52.604;13.318;2024-02-15T00:53:09;101120.03;;;8.55;100.00
57234;BME280;43090;52.604;13.318;2024-02-15T00:55:35;101119.22;;;8.21;100.00
57234;BME280;43090;52.604;13.318;2024-02-15T00:58:02;101134.47;;;8.50;100.00
57234;BME280;43090;52.604;13.318;2024-02-15T01:00:29;101131.72;;;8.36;100.00
57234;BME280;43090;52.604;13.318;2024-02-15T01:02:55;101139.56;;;8.55;100.00
57234;BME280;43090;52.604;13.318;2024-02-15T01:05:22;101140.34;;;8.73;100.00
57234;BME280;43090;52.604;13.318;2024-02-15T01:07:50;101137.44;;;8.46;100.00
57234;BME280;43090;52.604;13.318;2024-02-15T01:10:17;101137.22;;;8.33;100.00
57234;BME280;43090;52.604;13.318;2024-02-15T01:12:43;101140.78;;;8.49;100.00
57234;BME280;43090;52.604;13.318;2024-02-15T01:15:15;101126.41;;;8.52;100.00
57234;BME280;43090;52.604;13.318;2024-02-15T01:17:44;101108.13;;;8.28;100.00
57234;BME280;43090;52.604;13.318;2024-02-15T01:20:12;101110.56;;;8.49;100.00
57234;BME280;43090;52.604;13.318;2024-02-15T01:22:38;101120.91;;;8.55;100.00
57234;BME280;43090;52.604;13.318;2024-02-15T01:25:05;101104.03;;;8.55;100.00
57234;BME280;43090;52.604;13.318;2024-02-15T01:27:33;101140.53;;;8.54;100.00
57234;BME280;43090;52.604;13.318;2024-02-15T01:30:02;101118.84;;;8.60;100.00
57234;BME280;43090;52.604;13.318;2024-02-15T01:32:40;101106.81;;;8.36;100.00
57234;BME280;43090;52.604;13.318;2024-02-15T01:35:09;101118.56;;;8.49;100.00
57234;BME280;43090;52.604;13.318;2024-02-15T01:37:36;101116.41;;;8.56;100.00
57234;BME280;43090;52.604;13.318;2024-02-15T01:40:04;101113.50;;;8.60;100.00
57234;BME280;43090;52.604;13.318;2024-02-15T01:42:33;101101.78;;;8.47;100.00
57234;BME280;43090;52.604;13.318;2024-02-15T01:44:59;101127.16;;;8.70;100.00
57234;BME280;43090;52.604;13.318;2024-02-15T01:47:27;101119.50;;;8.48;100.00
57234;BME280;43090;52.604;13.318;2024-02-15T01:49:56;101120.28;;;8.50;100.00
57234;BME280;43090;52.604;13.318;2024-02-15T01:52:24;101125.81;;;8.63;100.00
57234;BME280;43090;52.604;13.318;2024-02-15T01:55:05;101119.06;;;8.56;100.00
57234;BME280;43090;52.604;13.318;2024-02-15T01:57:35;101098.31;;;8.45;100.00
57234;BME280;43090;52.604;13.318;2024-02-15T02:00:06;101112.97;;;8.54;100.00
57234;BME280;43090;52.604;13.318;2024-02-15T02:02:38;101094.09;;;8.41;100.00
57234;BME280;43090;52.604;13.318;2024-02-15T02:05:05;101110.19;;;8.71;100.00
57234;BME280;43090;52.604;13.318;2024-02-15T02:07:32;101115.38;;;8.58;100.00
57234;BME280;43090;52.604;13.318;2024-02-15T02:09:59;101102.91;;;8.59;100.00
57234;BME280;43090;52.604;13.318;2024-02-15T02:12:35;101102.63;;;8.63;100.00
57234;BME280;43090;52.604;13.318;2024-02-15T02:15:01;101092.97;;;8.45;100.00
57234;BME280;43090;52.604;13.318;2024-02-15T02:17:28;101113.47;;;8.76;100.00
57234;BME280;43090;52.604;13.318;2024-02-15T02:19:55;101104.53;;;8.61;100.00
57234;BME280;43090;52.604;13.318;2024-02-15T02:22:23;101110.03;;;8.74;100.00
57234;BME280;43090;52.604;13.318;2024-02-15T02:25:07;101099.84;;;8.81;100.00
57234;BME280;43090;52.604;13.318;2024-02-15T02:27:37;101104.44;;;8.79;100.00
57234;BME280;43090;52.604;13.318;2024-02-15T02:46:01;101110.41;;;8.03;100.00
57234;BME280;43090;52.604;13.318;2024-02-15T02:48:28;101105.38;;;8.14;100.00
57234;BME280;43090;52.604;13.318;2024-02-15T02:50:55;101105.19;;;8.33;100.00
57234;BME280;43090;52.604;13.318;2024-02-15T02:53:21;101113.13;;;8.66;100.00
57234;BME280;43090;52.604;13.318;2024-02-15T02:55:51;101104.09;;;8.53;100.00
57234;BME280;43090;52.604;13.318;2024-02-15T02:58:27;101095.94;;;8.56;100.00
57234;BME280;43090;52.604;13.318;2024-02-15T03:00:55;101094.44;;;8.66;100.00
57234;BME280;43090;52.604;13.318;2024-02-15T03:03:22;101098.69;;;8.71;100.00
57234;BME280;43090;52.604;13.318;2024-02-15T03:05:49;101107.09;;;8.79;100.00
57234;BME280;43090;52.604;13.318;2024-02-15T03:08:16;101100.97;;;8.77;100.00
57234;BME280;43090;52.604;13.318;2024-02-15T03:10:43;101105.03;;;8.84;100.00
57234;BME280;43090;52.604;13.318;2024-02-15T03:13:10;101106.75;;;8.53;100.00
57234;BME280;43090;52.604;13.318;2024-02-15T03:15:37;101103.13;;;8.70;100.00
57234;BME280;43090;52.604;13.318;2024-02-15T03:18:06;101107.19;;;8.77;100.00
57234;BME280;43090;52.604;13.318;2024-02-15T03:20:33;101100.31;;;8.73;100.00
57234;BME280;43090;52.604;13.318;2024-02-15T03:23:03;101117.16;;;8.90;100.00
57234;BME280;43090;52.604;13.318;2024-02-15T03:25:30;101107.25;;;8.92;100.00
57234;BME280;43090;52.604;13.318;2024-02-15T03:27:58;101109.81;;;8.93;100.00
57234;BME280;43090;52.604;13.318;2024-02-15T03:30:26;101114.22;;;8.78;100.00
57234;BME280;43090;52.604;13.318;2024-02-15T03:36:33;101114.31;;;8.77;100.00
57234;BME280;43090;52.604;13.318;2024-02-15T03:38:59;101107.19;;;8.77;100.00
57234;BME280;43090;52.604;13.318;2024-02-15T03:41:29;101101.75;;;8.79;100.00
57234;BME280;43090;52.604;13.318;2024-02-15T03:44:25;101122.19;;;9.10;100.00
57234;BME280;43090;52.604;13.318;2024-02-15T03:46:58;101110.53;;;8.81;100.00
57234;BME280;43090;52.604;13.318;2024-02-15T03:49:25;101120.16;;;8.83;100.00
57234;BME280;43090;52.604;13.318;2024-02-15T03:51:53;101113.97;;;8.83;100.00
57234;BME280;43090;52.604;13.318;2024-02-15T03:54:21;101122.41;;;8.91;100.00
57234;BME280;43090;52.604;13.318;2024-02-15T03:56:50;101112.06;;;9.01;100.00
57234;BME280;43090;52.604;13.318;2024-02-15T03:59:21;101114.94;;;9.12;100.00
57234;BME280;43090;52.604;13.318;2024-02-15T04:01:53;101112.06;;;9.01;100.00
57234;BME280;43090;52.604;13.318;2024-02-15T04:04:23;101107.16;;;8.93;100.00
57234;BME280;43090;52.604;13.318;2024-02-15T04:06:55;101100.00;;;8.94;100.00
57234;BME280;43090;52.604;13.318;2024-02-15T04:09:23;101109.69;;;9.11;100.00
57234;BME280;43090;52.604;13.318;2024-02-15T04:11:49;101112.72;;;9.05;100.00
57234;BME280;43090;52.604;13.318;2024-02-15T04:14:20;101123.41;;;9.05;100.00
57234;BME280;43090;52.604;13.318;2024-02-15T04:16:46;101093.84;;;8.77;100.00
57234;BME280;43090;52.604;13.318;2024-02-15T04:19:13;101116.63;;;8.99;100.00
57234;BME280;43090;52.604;13.318;2024-02-15T04:21:40;101110.31;;;9.00;100.00
57234;BME280;43090;52.604;13.318;2024-02-15T04:24:09;101120.81;;;9.03;100.00
57234;BME280;43090;52.604;13.318;2024-02-15T04:26:36;101105.53;;;8.91;100.00
57234;BME280;43090;52.604;13.318;2024-02-15T04:29:04;101106.88;;;8.98;100.00
57234;BME280;43090;52.604;13.318;2024-02-15T04:31:34;101113.94;;;8.99;100.00
57234;BME280;43090;52.604;13.318;2024-02-15T04:34:03;101115.59;;;8.86;100.00
57234;BME280;43090;52.604;13.318;2024-02-15T04:36:30;101108.38;;;8.72;100.00
57234;BME280;43090;52.604;13.318;2024-02-15T04:39:00;101119.63;;;8.93;100.00
57234;BME280;43090;52.604;13.318;2024-02-15T04:41:33;101114.38;;;8.91;100.00
57234;BME280;43090;52.604;13.318;2024-02-15T04:44:00;101103.34;;;8.97;100.00
57234;BME280;43090;52.604;13.318;2024-02-15T04:46:26;101123.34;;;9.06;100.00
57234;BME280;43090;52.604;13.318;2024-02-15T04:48:53;101121.50;;;9.07;100.00
57234;BME280;43090;52.604;13.318;2024-02-15T04:51:20;101111.31;;;9.13;100.00
57234;BME280;43090;52.604;13.318;2024-02-15T04:53:46;101115.13;;;9.09;100.00
57234;BME280;43090;52.604;13.318;2024-02-15T04:56:14;101110.81;;;8.76;100.00
57234;BME280;43090;52.604;13.318;2024-02-15T04:58:43;101108.44;;;8.86;100.00
57234;BME280;43090;52.604;13.318;2024-02-15T05:01:13;101110.31;;;9.00;100.00
57234;BME280;43090;52.604;13.318;2024-02-15T05:03:42;101112.72;;;9.05;100.00
57234;BME280;43090;52.604;13.318;2024-02-15T05:06:08;101107.22;;;9.08;100.00
57234;BME280;43090;52.604;13.318;2024-02-15T05:08:36;101105.19;;;8.81;100.00
57234;BME280;43090;52.604;13.318;2024-02-15T05:11:11;101116.44;;;9.02;100.00
57234;BME280;43090;52.604;13.318;2024-02-15T05:13:48;101120.66;;;8.90;100.00
57234;BME280;43090;52.604;13.318;2024-02-15T05:16:18;101120.66;;;9.06;100.00
57234;BME280;43090;52.604;13.318;2024-02-15T05:18:45;101131.13;;;8.79;100.00
57234;BME280;43090;52.604;13.318;2024-02-15T05:21:12;101114.63;;;9.03;100.00
57234;BME280;43090;52.604;13.318;2024-02-15T05:23:39;101129.44;;;9.08;100.00
57234;BME280;43090;52.604;13.318;2024-02-15T05:26:06;101130.13;;;9.12;100.00
57234;BME280;43090;52.604;13.318;2024-02-15T05:28:32;101125.72;;;9.11;100.00
57234;BME280;43090;52.604;13.318;2024-02-15T05:31:09;101130.63;;;9.19;100.00
57234;BME280;43090;52.604;13.318;2024-02-15T05:33:37;101126.84;;;9.07;100.00
57234;BME280;43090;52.604;13.318;2024-02-15T05:36:11;101122.84;;;9.14;100.00
57234;BME280;43090;52.604;13.318;2024-02-15T05:38:38;101116.97;;;9.23;100.00
57234;BME280;43090;52.604;13.318;2024-02-15T05:41:07;101106.56;;;9.19;100.00
57234;BME280;43090;52.604;13.318;2024-02-15T05:43:40;101113.81;;;9.16;100.00
57234;BME280;43090;52.604;13.318;2024-02-15T05:46:24;101106.47;;;9.20;100.00
57234;BME280;43090;52.604;13.318;2024-02-15T05:48:54;101136.31;;;9.43;100.00
57234;BME280;43090;52.604;13.318;2024-02-15T05:51:22;101133.50;;;9.30;100.00
57234;BME280;43090;52.604;13.318;2024-02-15T05:53:49;101122.31;;;9.23;100.00
57234;BME280;43090;52.604;13.318;2024-02-15T05:56:16;101119.94;;;9.19;100.00
57234;BME280;43090;52.604;13.318;2024-02-15T05:58:43;101115.47;;;9.33;100.00
57234;BME280;43090;52.604;13.318;2024-02-15T06:01:10;101128.19;;;9.14;100.00
57234;BME280;43090;52.604;13.318;2024-02-15T06:03:39;101118.56;;;9.11;100.00
57234;BME280;43090;52.604;13.318;2024-02-15T06:06:17;101130.16;;;9.26;100.00
57234;BME280;43090;52.604;13.318;2024-02-15T06:08:49;101099.78;;;9.13;100.00
57234;BME280;43090;52.604;13.318;2024-02-15T06:11:23;101114.06;;;9.42;100.00
57234;BME280;43090;52.604;13.318;2024-02-15T06:13:50;101115.97;;;9.40;100.00
57234;BME280;43090;52.604;13.318;2024-02-15T06:16:17;101102.13;;;9.33;100.00
57234;BME280;43090;52.604;13.318;2024-02-15T06:18:44;101128.78;;;9.49;100.00
57234;BME280;43090;52.604;13.318;2024-02-15T06:21:11;101126.97;;;9.50;100.00
57234;BME280;43090;52.604;13.318;2024-02-15T06:23:40;101113.53;;;9.21;100.00
57234;BME280;43090;52.604;13.318;2024-02-15T06:26:08;101103.22;;;9.15;100.00
57234;BME280;43090;52.604;13.318;2024-02-15T06:28:34;101148.13;;;9.39;100.00
57234;BME280;43090;52.604;13.318;2024-02-15T06:31:22;101111.97;;;9.03;100.00
57234;BME280;43090;52.604;13.318;2024-02-15T06:34:12;101133.50;;;9.30;100.00
57234;BME280;43090;52.604;13.318;2024-02-15T06:36:59;101121.72;;;9.18;100.00
57234;BME280;43090;52.604;13.318;2024-02-15T06:39:44;101128.88;;;9.17;100.00
57234;BME280;43090;52.604;13.318;2024-02-15T06:42:14;101127.34;;;9.13;100.00
57234;BME280;43090;52.604;13.318;2024-02-15T06:44:49;101148.13;;;9.39;100.00
57234;BME280;43090;52.604;13.318;2024-02-15T06:47:16;101137.88;;;9.31;100.00
57234;BME280;43090;52.604;13.318;2024-02-15T06:49:46;101150.34;;;9.46;100.00
57234;BME280;43090;52.604;13.318;2024-02-15T06:52:13;101122.75;;;9.01;100.00
57234;BME280;43090;52.604;13.318;2024-02-15T06:54:42;101135.28;;;9.15;100.00
57234;BME280;43090;52.604;13.318;2024-02-15T06:57:09;101149.75;;;9.41;100.00
57234;BME280;43090;52.604;13.318;2024-02-15T06:59:36;101129.75;;;9.18;100.00
57234;BME280;43090;52.604;13.318;2024-02-15T07:02:05;101141.59;;;9.28;100.00
57234;BME280;43090;52.604;13.318;2024-02-15T07:04:32;101129.13;;;9.29;100.00
57234;BME280;43090;52.604;13.318;2024-02-15T07:06:59;101170.25;;;9.57;100.00
57234;BME280;43090;52.604;13.318;2024-02-15T07:09:28;101161.81;;;9.63;100.00
57234;BME280;43090;52.604;13.318;2024-02-15T07:11:56;101140.06;;;9.24;100.00
57234;BME280;43090;52.604;13.318;2024-02-15T07:14:24;101140.72;;;9.13;100.00
57234;BME280;43090;52.604;13.318;2024-02-15T07:16:55;101143.06;;;9.34;100.00
57234;BME280;43090;52.604;13.318;2024-02-15T07:19:25;101156.94;;;9.41;100.00
57234;BME280;43090;52.604;13.318;2024-02-15T07:21:55;101156.75;;;9.44;100.00
57234;BME280;43090;52.604;13.318;2024-02-15T07:24:23;101153.81;;;9.32;100.00
57234;BME280;43090;52.604;13.318;2024-02-15T07:26:54;101140.63;;;9.15;100.00
57234;BME280;43090;52.604;13.318;2024-02-15T07:29:22;101171.63;;;9.48;100.00
57234;BME280;43090;52.604;13.318;2024-02-15T07:31:50;101170.34;;;9.39;100.00
57234;BME280;43090;52.604;13.318;2024-02-15T07:34:16;101159.81;;;9.52;100.00
57234;BME280;43090;52.604;13.318;2024-02-15T07:36:46;101176.16;;;9.62;100.00
57234;BME280;43090;52.604;13.318;2024-02-15T07:39:13;101143.66;;;9.54;100.00
57234;BME280;43090;52.604;13.318;2024-02-15T07:41:52;101137.28;;;9.56;100.00
57234;BME280;43090;52.604;13.318;2024-02-15T07:44:19;101166.72;;;9.85;100.00
57234;BME280;43090;52.604;13.318;2024-02-15T07:46:45;101167.09;;;9.79;100.00
57234;BME280;43090;52.604;13.318;2024-02-15T07:49:12;101143.47;;;9.42;100.00
57234;BME280;43090;52.604;13.318;2024-02-15T07:51:39;101157.22;;;9.50;100.00
57234;BME280;43090;52.604;13.318;2024-02-15T07:54:06;101170.50;;;9.52;100.00
57234;BME280;43090;52.604;13.318;2024-02-15T07:56:33;101155.19;;;9.40;100.00
57234;BME280;43090;52.604;13.318;2024-02-15T07:59:01;101177.38;;;9.56;100.00
57234;BME280;43090;52.604;13.318;2024-02-15T08:01:27;101168.06;;;9.63;100.00
57234;BME280;43090;52.604;13.318;2024-02-15T08:03:56;101177.22;;;9.59;100.00
57234;BME280;43090;52.604;13.318;2024-02-15T08:06:23;101164.69;;;9.60;100.00
57234;BME280;43090;52.604;13.318;2024-02-15T08:08:55;101160.13;;;9.76;100.00
57234;BME280;43090;52.604;13.318;2024-02-15T08:11:22;101159.28;;;9.76;100.00
57234;BME280;43090;52.604;13.318;2024-02-15T08:13:51;101182.16;;;9.65;100.00
57234;BME280;43090;52.604;13.318;2024-02-15T08:16:22;101175.91;;;9.95;100.00
57234;BME280;43090;52.604;13.318;2024-02-15T08:18:50;101172.94;;;9.71;100.00
57234;BME280;43090;52.604;13.318;2024-02-15T08:21:28;101168.66;;;9.83;100.00
57234;BME280;43090;52.604;13.318;2024-02-15T08:23:56;101180.66;;;9.76;100.00
57234;BME280;43090;52.604;13.318;2024-02-15T08:26:22;101169.22;;;9.88;100.00
57234;BME280;43090;52.604;13.318;2024-02-15T08:28:49;101176.78;;;9.96;100.00
57234;BME280;43090;52.604;13.318;2024-02-15T08:31:16;101196.53;;;9.93;100.00
57234;BME280;43090;52.604;13.318;2024-02-15T08:33:42;101180.22;;;9.83;100.00
57234;BME280;43090;52.604;13.318;2024-02-15T08:36:26;101170.69;;;9.49;100.00
57234;BME280;43090;52.604;13.318;2024-02-15T08:38:56;101172.81;;;9.58;100.00
57234;BME280;43090;52.604;13.318;2024-02-15T08:41:34;101160.19;;;9.60;100.00
57234;BME280;43090;52.604;13.318;2024-02-15T08:44:02;101165.22;;;9.81;100.00
57234;BME280;43090;52.604;13.318;2024-02-15T08:46:51;101164.91;;;10.00;100.00
57234;BME280;43090;52.604;13.318;2024-02-15T08:49:18;101172.69;;;10.05;100.00
57234;BME280;43090;52.604;13.318;2024-02-15T08:52:12;101161.75;;;9.79;100.00
57234;BME280;43090;52.604;13.318;2024-02-15T08:54:44;101153.75;;;9.93;100.00
57234;BME280;43090;52.604;13.318;2024-02-15T08:57:13;101165.41;;;10.21;100.00
57234;BME280;43090;52.604;13.318;2024-02-15T08:59:40;101161.09;;;10.18;100.00
57234;BME280;43090;52.604;13.318;2024-02-15T09:02:09;101166.66;;;10.30;100.00
57234;BME280;43090;52.604;13.318;2024-02-15T09:04:36;101152.31;;;10.31;100.00
57234;BME280;43090;52.604;13.318;2024-02-15T09:07:02;101146.59;;;10.37;100.00
57234;BME280;43090;52.604;13.318;2024-02-15T09:09:30;101179.56;;;10.52;100.00
57234;BME280;43090;52.604;13.318;2024-02-15T09:12:03;101154.34;;;10.42;100.00
57234;BME280;43090;52.604;13.318;2024-02-15T09:14:36;101165.50;;;10.48;100.00
57234;BME280;43090;52.604;13.318;2024-02-15T09:17:06;101153.94;;;10.48;100.00
57234;BME280;43090;52.604;13.318;2024-02-15T09:23:40;101162.44;;;10.82;100.00
57234;BME280;43090;52.604;13.318;2024-02-15T09:26:23;101150.03;;;10.81;100.00
57234;BME280;43090;52.604;13.318;2024-02-15T09:28:49;101163.56;;;10.92;100.00
57234;BME280;43090;52.604;13.318;2024-02-15T09:31:22;101172.59;;;10.77;100.00
57234;BME280;43090;52.604;13.318;2024-02-15T09:34:23;101185.47;;;10.99;100.00
57234;BME280;43090;52.604;13.318;2024-02-15T09:36:54;101160.22;;;10.61;100.00
57234;BME280;43090;52.604;13.318;2024-02-15T09:39:29;101176.75;;;10.68;100.00
57234;BME280;43090;52.604;13.318;2024-02-15T09:42:34;101170.81;;;10.77;100.00
57234;BME280;43090;52.604;13.318;2024-02-15T09:45:09;101188.47;;;10.38;100.00
57234;BME280;43090;52.604;13.318;2024-02-15T09:48:29;101173.91;;;10.28;100.00
57234;BME280;43090;52.604;13.318;2024-02-15T09:51:44;101207.75;;;10.72;100.00
57234;BME280;43090;52.604;13.318;2024-02-15T09:58:12;101164.75;;;10.32;100.00
57234;BME280;43090;52.604;13.318;2024-02-15T10:04:11;101172.94;;;10.58;100.00
57234;BME280;43090;52.604;13.318;2024-02-15T10:06:49;101171.97;;;10.73;100.00
57234;BME280;43090;52.604;13.318;2024-02-15T10:10:15;101179.66;;;10.50;100.00
57234;BME280;43090;52.604;13.318;2024-02-15T10:12:54;101177.94;;;10.49;100.00
57234;BME280;43090;52.604;13.318;2024-02-15T10:15:46;101170.72;;;10.64;100.00
57234;BME280;43090;52.604;13.318;2024-02-15T10:18:14;101210.94;;;10.92;100.00
57234;BME280;43090;52.604;13.318;2024-02-15T10:24:19;101188.31;;;10.69;100.00
57234;BME280;43090;52.604;13.318;2024-02-15T10:26:48;101194.25;;;10.59;100.00
57234;BME280;43090;52.604;13.318;2024-02-15T10:29:14;101190.16;;;10.68;100.00
57234;BME280;43090;52.604;13.318;2024-02-15T10:31:54;101169.13;;;10.62;100.00
57234;BME280;43090;52.604;13.318;2024-02-15T10:34:34;101187.22;;;10.86;100.00
57234;BME280;43090;52.604;13.318;2024-02-15T10:37:15;101193.97;;;10.78;100.00
57234;BME280;43090;52.604;13.318;2024-02-15T10:47:51;101201.44;;;11.00;100.00
57234;BME280;43090;52.604;13.318;2024-02-15T11:01:50;101194.25;;;11.28;100.00
57234;BME280;43090;52.604;13.318;2024-02-15T11:10:59;101161.59;;;11.49;100.00
57234;BME280;43090;52.604;13.318;2024-02-15T11:13:35;101197.16;;;11.91;100.00
57234;BME280;43090;52.604;13.318;2024-02-15T11:22:34;101177.81;;;11.60;100.00
57234;BME280;43090;52.604;13.318;2024-02-15T11:25:50;101146.28;;;11.51;100.00
57234;BME280;43090;52.604;13.318;2024-02-15T11:35:34;101171.50;;;11.74;100.00
57234;BME280;43090;52.604;13.318;2024-02-15T11:38:06;101191.47;;;11.83;100.00
57234;BME280;43090;52.604;13.318;2024-02-15T11:46:25;101177.19;;;11.70;100.00
57234;BME280;43090;52.604;13.318;2024-02-15T11:48:52;101159.78;;;11.62;100.00
57234;BME280;43090;52.604;13.318;2024-02-15T11:55:18;101163.78;;;11.70;100.00
57234;BME280;43090;52.604;13.318;2024-02-15T11:57:56;101172.63;;;11.31;100.00
57234;BME280;43090;52.604;13.318;2024-02-15T12:06:58;101132.91;;;11.24;100.00
57234;BME280;43090;52.604;13.318;2024-02-15T12:13:30;101175.13;;;11.60;100.00
57234;BME280;43090;52.604;13.318;2024-02-15T12:16:41;101157.25;;;11.33;100.00
57234;BME280;43090;52.604;13.318;2024-02-15T12:27:09;101132.84;;;11.64;100.00
57234;BME280;43090;52.604;13.318;2024-02-15T12:30:16;101159.91;;;11.74;100.00
57234;BME280;43090;52.604;13.318;2024-02-15T12:33:12;101138.56;;;11.06;100.00
57234;BME280;43090;52.604;13.318;2024-02-15T12:35:48;101120.09;;;11.42;100.00
57234;BME280;43090;52.604;13.318;2024-02-15T12:39:08;101102.06;;;11.44;100.00
57234;BME280;43090;52.604;13.318;2024-02-15T12:42:40;101147.47;;;11.86;100.00
57234;BME280;43090;52.604;13.318;2024-02-15T12:45:17;101101.31;;;11.67;100.00
57234;BME280;43090;52.604;13.318;2024-02-15T13:03:08;101122.22;;;12.27;100.00
57234;BME280;43090;52.604;13.318;2024-02-15T13:17:38;101088.81;;;12.31;100.00
57234;BME280;43090;52.604;13.318;2024-02-15T13:20:08;101129.78;;;12.46;100.00
57234;BME280;43090;52.604;13.318;2024-02-15T13:31:31;101090.53;;;12.32;100.00
57234;BME280;43090;52.604;13.318;2024-02-15T13:34:08;101083.31;;;12.32;100.00
57234;BME280;43090;52.604;13.318;2024-02-15T13:51:15;101075.91;;;12.36;100.00
57234;BME280;43090;52.604;13.318;2024-02-15T13:53:49;101082.88;;;12.39;100.00
57234;BME280;43090;52.604;13.318;2024-02-15T13:59:26;101101.47;;;12.66;100.00
57234;BME280;43090;52.604;13.318;2024-02-15T14:06:20;101096.72;;;12.70;100.00
57234;BME280;43090;52.604;13.318;2024-02-15T14:08:50;101072.38;;;12.60;100.00
57234;BME280;43090;52.604;13.318;2024-02-15T14:11:17;101104.97;;;12.79;100.00
